sensor_id;sensor_type;location;lat;lon;timestamp;temperature;humidity
23618;DHT22;18207;32.078;34.818;2023-05-10T00:00:29;26.50;45.60
23618;DHT22;18207;32.078;34.818;2023-05-10T00:03:00;26.50;45.60
23618;DHT22;18207;32.078;34.818;2023-05-10T00:05:32;26.50;45.60
23618;DHT22;18207;32.078;34.818;2023-05-10T00:08:02;26.50;45.60
23618;DHT22;18207;32.078;34.818;2023-05-10T00:10:32;26.50;45.60
23618;DHT22;18207;32.078;34.818;2023-05-10T00:13:02;26.50;45.60
23618;DHT22;18207;32.078;34.818;2023-05-10T00:15:33;26.50;45.60
23618;DHT22;18207;32.078;34.818;2023-05-10T00:18:05;26.50;45.50
23618;DHT22;18207;32.078;34.818;2023-05-10T00:20:35;26.40;45.50
23618;DHT22;18207;32.078;34.818;2023-05-10T00:23:05;26.50;45.50
23618;DHT22;18207;32.078;34.818;2023-05-10T00:25:35;26.50;45.60
23618;DHT22;18207;32.078;34.818;2023-05-10T00:28:05;26.40;45.50
23618;DHT22;18207;32.078;34.818;2023-05-10T00:30:35;26.50;45.60
23618;DHT22;18207;32.078;34.818;2023-05-10T00:33:07;26.50;45.60
23618;DHT22;18207;32.078;34.818;2023-05-10T00:35:37;26.50;45.60
23618;DHT22;18207;32.078;34.818;2023-05-10T00:38:07;26.50;45.60
23618;DHT22;18207;32.078;34.818;2023-05-10T00:40:38;26.50;45.60
23618;DHT22;18207;32.078;34.818;2023-05-10T00:43:09;26.50;45.60
23618;DHT22;18207;32.078;34.818;2023-05-10T00:45:40;26.50;45.60
23618;DHT22;18207;32.078;34.818;2023-05-10T00:48:12;26.40;45.50
23618;DHT22;18207;32.078;34.818;2023-05-10T00:50:43;26.40;45.50
23618;DHT22;18207;32.078;34.818;2023-05-10T00:53:13;26.50;45.60
23618;DHT22;18207;32.078;34.818;2023-05-10T00:55:44;26.40;45.50
23618;DHT22;18207;32.078;34.818;2023-05-10T00:58:14;26.50;45.50
23618;DHT22;18207;32.078;34.818;2023-05-10T01:00:46;26.50;45.50
23618;DHT22;18207;32.078;34.818;2023-05-10T01:03:18;26.50;45.40
23618;DHT22;18207;32.078;34.818;2023-05-10T01:05:49;26.50;45.40
23618;DHT22;18207;32.078;34.818;2023-05-10T01:08:19;26.50;45.40
23618;DHT22;18207;32.078;34.818;2023-05-10T01:10:50;26.50;45.40
23618;DHT22;18207;32.078;34.818;2023-05-10T01:13:29;26.50;45.40
23618;DHT22;18207;32.078;34.818;2023-05-10T01:16:02;26.50;45.40
23618;DHT22;18207;32.078;34.818;2023-05-10T01:18:38;26.40;45.40
23618;DHT22;18207;32.078;34.818;2023-05-10T01:21:17;26.40;45.40
23618;DHT22;18207;32.078;34.818;2023-05-10T01:24:24;26.40;45.30
23618;DHT22;18207;32.078;34.818;2023-05-10T01:31:08;26.40;45.10
23618;DHT22;18207;32.078;34.818;2023-05-10T01:34:03;26.40;45.10
23618;DHT22;18207;32.078;34.818;2023-05-10T01:36:42;26.40;45.20
23618;DHT22;18207;32.078;34.818;2023-05-10T01:39:23;26.40;45.30
23618;DHT22;18207;32.078;34.818;2023-05-10T01:42:02;26.30;45.20
23618;DHT22;18207;32.078;34.818;2023-05-10T01:44:41;26.30;45.20
23618;DHT22;18207;32.078;34.818;2023-05-10T01:47:25;26.30;45.20
23618;DHT22;18207;32.078;34.818;2023-05-10T01:50:04;26.20;45.20
23618;DHT22;18207;32.078;34.818;2023-05-10T01:52:42;26.20;45.20
23618;DHT22;18207;32.078;34.818;2023-05-10T01:55:18;26.20;45.40
23618;DHT22;18207;32.078;34.818;2023-05-10T01:57:58;26.20;45.30
23618;DHT22;18207;32.078;34.818;2023-05-10T02:00:33;26.20;45.40
23618;DHT22;18207;32.078;34.818;2023-05-10T02:03:06;26.20;45.30
23618;DHT22;18207;32.078;34.818;2023-05-10T02:05:41;26.10;45.20
23618;DHT22;18207;32.078;34.818;2023-05-10T02:08:14;26.10;45.20
23618;DHT22;18207;32.078;34.818;2023-05-10T02:10:48;26.10;45.40
23618;DHT22;18207;32.078;34.818;2023-05-10T02:13:21;26.10;45.30
23618;DHT22;18207;32.078;34.818;2023-05-10T02:15:54;26.10;45.30
23618;DHT22;18207;32.078;34.818;2023-05-10T02:18:27;26.10;45.40
23618;DHT22;18207;32.078;34.818;2023-05-10T02:21:00;26.10;45.40
23618;DHT22;18207;32.078;34.818;2023-05-10T02:23:32;26.10;45.50
23618;DHT22;18207;32.078;34.818;2023-05-10T02:26:04;26.10;45.40
23618;DHT22;18207;32.078;34.818;2023-05-10T02:28:36;26.10;45.50
23618;DHT22;18207;32.078;34.818;2023-05-10T02:31:08;26.10;45.50
23618;DHT22;18207;32.078;34.818;2023-05-10T02:33:40;26.10;45.50
23618;DHT22;18207;32.078;34.818;2023-05-10T02:36:14;26.10;45.50
23618;DHT22;18207;32.078;34.818;2023-05-10T02:38:46;26.10;45.50
23618;DHT22;18207;32.078;34.818;2023-05-10T02:41:20;26.10;45.50
23618;DHT22;18207;32.078;34.818;2023-05-10T02:43:52;26.00;45.40
23618;DHT22;18207;32.078;34.818;2023-05-10T02:46:30;26.10;45.50
23618;DHT22;18207;32.078;34.818;2023-05-10T02:49:01;26.10;45.50
23618;DHT22;18207;32.078;34.818;2023-05-10T02:51:36;26.10;45.50
23618;DHT22;18207;32.078;34.818;2023-05-10T02:54:20;26.10;45.50
23618;DHT22;18207;32.078;34.818;2023-05-10T02:56:57;26.10;45.50
23618;DHT22;18207;32.078;34.818;2023-05-10T02:59:28;26.10;45.50
23618;DHT22;18207;32.078;34.818;2023-05-10T03:02:00;26.10;45.50
23618;DHT22;18207;32.078;34.818;2023-05-10T03:04:30;26.10;45.50
23618;DHT22;18207;32.078;34.818;2023-05-10T03:07:02;26.10;45.50
23618;DHT22;18207;32.078;34.818;2023-05-10T03:09:32;26.00;45.40
23618;DHT22;18207;32.078;34.818;2023-05-10T03:12:14;26.00;45.40
23618;DHT22;18207;32.078;34.818;2023-05-10T03:14:56;26.10;45.50
23618;DHT22;18207;32.078;34.818;2023-05-10T03:17:34;26.00;45.40
23618;DHT22;18207;32.078;34.818;2023-05-10T03:20:22;26.10;45.50
23618;DHT22;18207;32.078;34.818;2023-05-10T03:23:02;26.10;45.50
23618;DHT22;18207;32.078;34.818;2023-05-10T03:25:37;26.00;45.40
23618;DHT22;18207;32.078;34.818;2023-05-10T03:28:12;26.00;45.40
23618;DHT22;18207;32.078;34.818;2023-05-10T03:30:44;26.10;45.50
23618;DHT22;18207;32.078;34.818;2023-05-10T03:33:15;26.10;45.50
23618;DHT22;18207;32.078;34.818;2023-05-10T03:35:46;26.10;45.60
23618;DHT22;18207;32.078;34.818;2023-05-10T03:38:18;26.10;45.60
23618;DHT22;18207;32.078;34.818;2023-05-10T03:40:49;26.10;45.60
23618;DHT22;18207;32.078;34.818;2023-05-10T03:43:19;26.10;45.60
23618;DHT22;18207;32.078;34.818;2023-05-10T03:45:49;26.10;45.50
23618;DHT22;18207;32.078;34.818;2023-05-10T03:48:19;26.10;45.50
23618;DHT22;18207;32.078;34.818;2023-05-10T03:50:50;26.10;45.50
23618;DHT22;18207;32.078;34.818;2023-05-10T03:53:21;26.10;45.50
23618;DHT22;18207;32.078;34.818;2023-05-10T03:55:52;26.10;45.60
23618;DHT22;18207;32.078;34.818;2023-05-10T03:58:22;26.00;45.60
23618;DHT22;18207;32.078;34.818;2023-05-10T04:00:52;26.10;45.70
23618;DHT22;18207;32.078;34.818;2023-05-10T04:03:23;26.10;45.70
23618;DHT22;18207;32.078;34.818;2023-05-10T04:05:59;26.10;45.70
23618;DHT22;18207;32.078;34.818;2023-05-10T04:08:32;26.20;45.80
23618;DHT22;18207;32.078;34.818;2023-05-10T04:11:05;26.20;45.80
23618;DHT22;18207;32.078;34.818;2023-05-10T04:13:37;26.20;45.80
23618;DHT22;18207;32.078;34.818;2023-05-10T04:16:07;26.20;45.80
23618;DHT22;18207;32.078;34.818;2023-05-10T04:18:37;26.20;45.80
23618;DHT22;18207;32.078;34.818;2023-05-10T04:21:11;26.30;45.80
23618;DHT22;18207;32.078;34.818;2023-05-10T04:23:44;26.30;45.80
23618;DHT22;18207;32.078;34.818;2023-05-10T04:26:15;26.30;45.70
23618;DHT22;18207;32.078;34.818;2023-05-10T04:28:44;26.30;45.70
23618;DHT22;18207;32.078;34.818;2023-05-10T04:31:14;26.40;45.70
23618;DHT22;18207;32.078;34.818;2023-05-10T04:33:44;26.40;45.80
23618;DHT22;18207;32.078;34.818;2023-05-10T04:36:14;26.40;45.80
23618;DHT22;18207;32.078;34.818;2023-05-10T04:38:45;26.40;45.80
23618;DHT22;18207;32.078;34.818;2023-05-10T04:41:15;26.40;46.40
23618;DHT22;18207;32.078;34.818;2023-05-10T04:43:46;26.50;45.90
23618;DHT22;18207;32.078;34.818;2023-05-10T04:46:17;26.50;45.90
23618;DHT22;18207;32.078;34.818;2023-05-10T04:48:47;26.60;45.90
23618;DHT22;18207;32.078;34.818;2023-05-10T04:51:18;26.60;46.50
23618;DHT22;18207;32.078;34.818;2023-05-10T04:53:50;26.60;45.80
23618;DHT22;18207;32.078;34.818;2023-05-10T04:56:32;26.70;45.80
23618;DHT22;18207;32.078;34.818;2023-05-10T04:59:02;26.70;45.80
23618;DHT22;18207;32.078;34.818;2023-05-10T05:01:32;26.80;45.90
23618;DHT22;18207;32.078;34.818;2023-05-10T05:04:02;26.80;45.90
23618;DHT22;18207;32.078;34.818;2023-05-10T05:06:33;26.80;45.90
23618;DHT22;18207;32.078;34.818;2023-05-10T05:09:05;26.90;45.90
23618;DHT22;18207;32.078;34.818;2023-05-10T05:11:35;26.90;45.80
23618;DHT22;18207;32.078;34.818;2023-05-10T05:14:05;26.90;45.80
23618;DHT22;18207;32.078;34.818;2023-05-10T05:16:36;27.00;45.70
23618;DHT22;18207;32.078;34.818;2023-05-10T05:19:06;27.00;45.70
23618;DHT22;18207;32.078;34.818;2023-05-10T05:21:36;27.10;45.70
23618;DHT22;18207;32.078;34.818;2023-05-10T05:24:09;27.10;45.70
23618;DHT22;18207;32.078;34.818;2023-05-10T05:26:40;27.10;45.70
23618;DHT22;18207;32.078;34.818;2023-05-10T05:29:10;27.20;45.70
23618;DHT22;18207;32.078;34.818;2023-05-10T05:31:40;27.20;45.60
23618;DHT22;18207;32.078;34.818;2023-05-10T05:34:10;27.30;45.60
23618;DHT22;18207;32.078;34.818;2023-05-10T05:36:40;27.30;45.50
23618;DHT22;18207;32.078;34.818;2023-05-10T05:39:12;27.30;45.50
23618;DHT22;18207;32.078;34.818;2023-05-10T05:41:41;27.40;45.50
23618;DHT22;18207;32.078;34.818;2023-05-10T05:44:12;27.40;45.50
23618;DHT22;18207;32.078;34.818;2023-05-10T05:46:42;27.40;45.50
23618;DHT22;18207;32.078;34.818;2023-05-10T05:49:12;27.50;45.50
23618;DHT22;18207;32.078;34.818;2023-05-10T05:51:42;27.50;45.40
23618;DHT22;18207;32.078;34.818;2023-05-10T05:54:13;27.60;45.40
23618;DHT22;18207;32.078;34.818;2023-05-10T05:56:43;27.60;45.40
23618;DHT22;18207;32.078;34.818;2023-05-10T05:59:13;27.60;46.00
23618;DHT22;18207;32.078;34.818;2023-05-10T06:01:43;27.70;45.40
23618;DHT22;18207;32.078;34.818;2023-05-10T06:04:13;27.70;45.30
23618;DHT22;18207;32.078;34.818;2023-05-10T06:06:44;27.80;45.20
23618;DHT22;18207;32.078;34.818;2023-05-10T06:09:16;27.80;45.20
23618;DHT22;18207;32.078;34.818;2023-05-10T06:11:45;27.90;45.20
23618;DHT22;18207;32.078;34.818;2023-05-10T06:14:16;28.00;45.20
23618;DHT22;18207;32.078;34.818;2023-05-10T06:16:45;28.00;45.00
23618;DHT22;18207;32.078;34.818;2023-05-10T06:19:16;28.00;45.00
23618;DHT22;18207;32.078;34.818;2023-05-10T06:21:46;28.10;45.00
23618;DHT22;18207;32.078;34.818;2023-05-10T06:24:21;28.10;45.30
23618;DHT22;18207;32.078;34.818;2023-05-10T06:26:51;28.20;45.00
23618;DHT22;18207;32.078;34.818;2023-05-10T06:29:21;28.20;44.90
23618;DHT22;18207;32.078;34.818;2023-05-10T06:31:51;28.30;44.90
23618;DHT22;18207;32.078;34.818;2023-05-10T06:34:21;28.30;44.90
23618;DHT22;18207;32.078;34.818;2023-05-10T06:36:51;28.40;44.80
23618;DHT22;18207;32.078;34.818;2023-05-10T06:39:23;28.30;44.60
23618;DHT22;18207;32.078;34.818;2023-05-10T06:41:53;28.40;44.60
23618;DHT22;18207;32.078;34.818;2023-05-10T06:44:23;28.50;44.70
23618;DHT22;18207;32.078;34.818;2023-05-10T06:46:53;28.50;44.60
23618;DHT22;18207;32.078;34.818;2023-05-10T06:49:23;28.60;44.50
23618;DHT22;18207;32.078;34.818;2023-05-10T06:51:54;28.60;44.50
23618;DHT22;18207;32.078;34.818;2023-05-10T06:54:26;28.60;44.50
23618;DHT22;18207;32.078;34.818;2023-05-10T06:56:57;28.70;44.50
23618;DHT22;18207;32.078;34.818;2023-05-10T06:59:29;28.70;44.40
23618;DHT22;18207;32.078;34.818;2023-05-10T07:02:00;28.80;45.00
23618;DHT22;18207;32.078;34.818;2023-05-10T07:04:31;28.80;44.30
23618;DHT22;18207;32.078;34.818;2023-05-10T07:07:01;28.80;44.20
23618;DHT22;18207;32.078;34.818;2023-05-10T07:09:33;28.90;44.20
23618;DHT22;18207;32.078;34.818;2023-05-10T07:12:04;28.90;44.10
23618;DHT22;18207;32.078;34.818;2023-05-10T07:14:37;29.00;44.20
23618;DHT22;18207;32.078;34.818;2023-05-10T07:17:08;29.10;44.20
23618;DHT22;18207;32.078;34.818;2023-05-10T07:19:38;29.10;44.20
23618;DHT22;18207;32.078;34.818;2023-05-10T07:22:08;29.10;44.10
23618;DHT22;18207;32.078;34.818;2023-05-10T07:24:41;29.20;44.10
23618;DHT22;18207;32.078;34.818;2023-05-10T07:27:11;29.20;44.10
23618;DHT22;18207;32.078;34.818;2023-05-10T07:29:42;29.20;44.10
23618;DHT22;18207;32.078;34.818;2023-05-10T07:32:12;29.30;44.10
23618;DHT22;18207;32.078;34.818;2023-05-10T07:34:43;29.30;44.10
23618;DHT22;18207;32.078;34.818;2023-05-10T07:37:13;29.30;44.00
23618;DHT22;18207;32.078;34.818;2023-05-10T07:39:45;29.40;44.00
23618;DHT22;18207;32.078;34.818;2023-05-10T07:42:15;29.40;43.90
23618;DHT22;18207;32.078;34.818;2023-05-10T07:44:45;29.40;43.90
23618;DHT22;18207;32.078;34.818;2023-05-10T07:47:14;29.50;43.90
23618;DHT22;18207;32.078;34.818;2023-05-10T07:49:45;29.50;43.80
23618;DHT22;18207;32.078;34.818;2023-05-10T07:52:14;29.50;43.80
23618;DHT22;18207;32.078;34.818;2023-05-10T07:54:49;29.60;43.90
23618;DHT22;18207;32.078;34.818;2023-05-10T07:57:19;29.60;43.80
23618;DHT22;18207;32.078;34.818;2023-05-10T07:59:50;29.60;43.80
23618;DHT22;18207;32.078;34.818;2023-05-10T08:02:20;29.60;43.70
23618;DHT22;18207;32.078;34.818;2023-05-10T08:04:50;29.60;43.70
23618;DHT22;18207;32.078;34.818;2023-05-10T08:07:20;29.70;43.70
23618;DHT22;18207;32.078;34.818;2023-05-10T08:09:53;29.70;43.70
23618;DHT22;18207;32.078;34.818;2023-05-10T08:12:23;29.70;43.60
23618;DHT22;18207;32.078;34.818;2023-05-10T08:14:53;29.80;43.70
23618;DHT22;18207;32.078;34.818;2023-05-10T08:17:23;29.80;43.60
23618;DHT22;18207;32.078;34.818;2023-05-10T08:19:53;29.80;43.60
23618;DHT22;18207;32.078;34.818;2023-05-10T08:22:23;29.90;43.60
23618;DHT22;18207;32.078;34.818;2023-05-10T08:24:55;29.90;43.50
23618;DHT22;18207;32.078;34.818;2023-05-10T08:27:26;29.90;43.50
23618;DHT22;18207;32.078;34.818;2023-05-10T08:29:56;29.90;43.40
23618;DHT22;18207;32.078;34.818;2023-05-10T08:32:26;29.90;43.40
23618;DHT22;18207;32.078;34.818;2023-05-10T08:34:56;30.00;43.40
23618;DHT22;18207;32.078;34.818;2023-05-10T08:37:29;30.00;43.40
23618;DHT22;18207;32.078;34.818;2023-05-10T08:40:02;30.00;43.40
23618;DHT22;18207;32.078;34.818;2023-05-10T08:42:35;30.00;43.30
23618;DHT22;18207;32.078;34.818;2023-05-10T08:45:10;30.00;43.30
23618;DHT22;18207;32.078;34.818;2023-05-10T08:47:42;30.10;43.30
23618;DHT22;18207;32.078;34.818;2023-05-10T08:50:13;30.10;43.30
23618;DHT22;18207;32.078;34.818;2023-05-10T08:52:46;30.10;43.20
23618;DHT22;18207;32.078;34.818;2023-05-10T08:55:21;30.10;43.20
23618;DHT22;18207;32.078;34.818;2023-05-10T08:57:53;30.20;43.30
23618;DHT22;18207;32.078;34.818;2023-05-10T09:00:24;30.20;43.20
23618;DHT22;18207;32.078;34.818;2023-05-10T09:02:55;30.20;43.10
23618;DHT22;18207;32.078;34.818;2023-05-10T09:05:26;30.30;43.10
23618;DHT22;18207;32.078;34.818;2023-05-10T09:07:57;30.20;43.10
23618;DHT22;18207;32.078;34.818;2023-05-10T09:10:30;30.30;43.00
23618;DHT22;18207;32.078;34.818;2023-05-10T09:13:01;30.30;43.00
23618;DHT22;18207;32.078;34.818;2023-05-10T09:15:33;30.30;42.90
23618;DHT22;18207;32.078;34.818;2023-05-10T09:18:03;30.30;42.80
23618;DHT22;18207;32.078;34.818;2023-05-10T09:20:34;30.30;42.80
23618;DHT22;18207;32.078;34.818;2023-05-10T09:23:04;30.30;42.70
23618;DHT22;18207;32.078;34.818;2023-05-10T09:25:36;30.30;42.60
23618;DHT22;18207;32.078;34.818;2023-05-10T09:28:07;30.30;42.50
23618;DHT22;18207;32.078;34.818;2023-05-10T09:30:38;30.30;42.40
23618;DHT22;18207;32.078;34.818;2023-05-10T09:33:10;30.40;42.40
23618;DHT22;18207;32.078;34.818;2023-05-10T09:35:40;30.40;42.30
23618;DHT22;18207;32.078;34.818;2023-05-10T09:38:10;30.40;42.30
23618;DHT22;18207;32.078;34.818;2023-05-10T09:40:51;30.40;42.20
23618;DHT22;18207;32.078;34.818;2023-05-10T09:43:23;30.40;42.10
23618;DHT22;18207;32.078;34.818;2023-05-10T09:45:54;30.40;42.10
23618;DHT22;18207;32.078;34.818;2023-05-10T09:48:25;30.40;42.00
23618;DHT22;18207;32.078;34.818;2023-05-10T09:50:58;30.50;42.00
23618;DHT22;18207;32.078;34.818;2023-05-10T09:53:28;30.50;42.00
23618;DHT22;18207;32.078;34.818;2023-05-10T09:56:00;30.50;42.00
23618;DHT22;18207;32.078;34.818;2023-05-10T09:58:30;30.50;42.10
23618;DHT22;18207;32.078;34.818;2023-05-10T10:01:11;30.50;42.00
23618;DHT22;18207;32.078;34.818;2023-05-10T10:03:42;30.50;42.00
23618;DHT22;18207;32.078;34.818;2023-05-10T10:06:19;30.50;42.00
23618;DHT22;18207;32.078;34.818;2023-05-10T10:08:56;30.50;41.90
23618;DHT22;18207;32.078;34.818;2023-05-10T10:11:29;30.50;42.00
23618;DHT22;18207;32.078;34.818;2023-05-10T10:14:00;30.50;41.90
23618;DHT22;18207;32.078;34.818;2023-05-10T10:16:32;30.50;41.90
23618;DHT22;18207;32.078;34.818;2023-05-10T10:19:02;30.50;41.70
23618;DHT22;18207;32.078;34.818;2023-05-10T10:21:33;30.50;41.80
23618;DHT22;18207;32.078;34.818;2023-05-10T10:24:03;30.50;41.80
23618;DHT22;18207;32.078;34.818;2023-05-10T10:26:36;30.50;41.70
23618;DHT22;18207;32.078;34.818;2023-05-10T10:29:19;30.50;41.60
23618;DHT22;18207;32.078;34.818;2023-05-10T10:32:01;30.50;41.50
23618;DHT22;18207;32.078;34.818;2023-05-10T10:34:39;30.50;41.50
23618;DHT22;18207;32.078;34.818;2023-05-10T10:37:09;30.50;41.50
23618;DHT22;18207;32.078;34.818;2023-05-10T10:39:40;30.50;41.50
23618;DHT22;18207;32.078;34.818;2023-05-10T10:42:12;30.40;41.40
23618;DHT22;18207;32.078;34.818;2023-05-10T10:44:42;30.40;41.40
23618;DHT22;18207;32.078;34.818;2023-05-10T10:47:22;30.40;41.40
23618;DHT22;18207;32.078;34.818;2023-05-10T10:50:06;30.40;41.40
23618;DHT22;18207;32.078;34.818;2023-05-10T10:52:38;30.50;41.30
23618;DHT22;18207;32.078;34.818;2023-05-10T10:55:10;30.40;41.40
23618;DHT22;18207;32.078;34.818;2023-05-10T10:57:46;30.40;41.40
23618;DHT22;18207;32.078;34.818;2023-05-10T11:00:22;30.40;41.40
23618;DHT22;18207;32.078;34.818;2023-05-10T11:02:57;30.40;41.40
23618;DHT22;18207;32.078;34.818;2023-05-10T11:05:39;30.40;41.30
23618;DHT22;18207;32.078;34.818;2023-05-10T11:08:19;30.40;41.30
23618;DHT22;18207;32.078;34.818;2023-05-10T11:11:04;30.40;41.30
23618;DHT22;18207;32.078;34.818;2023-05-10T11:13:41;30.40;41.30
23618;DHT22;18207;32.078;34.818;2023-05-10T11:16:17;30.50;41.20
23618;DHT22;18207;32.078;34.818;2023-05-10T11:18:58;30.50;41.10
23618;DHT22;18207;32.078;34.818;2023-05-10T11:21:31;30.50;40.90
23618;DHT22;18207;32.078;34.818;2023-05-10T11:24:09;30.50;40.90
23618;DHT22;18207;32.078;34.818;2023-05-10T11:26:42;30.50;41.00
23618;DHT22;18207;32.078;34.818;2023-05-10T11:29:15;30.50;40.90
23618;DHT22;18207;32.078;34.818;2023-05-10T11:31:46;30.50;41.00
23618;DHT22;18207;32.078;34.818;2023-05-10T11:34:24;30.50;41.00
23618;DHT22;18207;32.078;34.818;2023-05-10T11:36:57;30.50;41.00
23618;DHT22;18207;32.078;34.818;2023-05-10T11:39:27;30.50;41.00
23618;DHT22;18207;32.078;34.818;2023-05-10T11:41:59;30.50;41.10
23618;DHT22;18207;32.078;34.818;2023-05-10T11:44:32;30.50;41.00
23618;DHT22;18207;32.078;34.818;2023-05-10T11:47:03;30.50;41.00
23618;DHT22;18207;32.078;34.818;2023-05-10T11:49:34;30.50;41.00
23618;DHT22;18207;32.078;34.818;2023-05-10T11:52:05;30.50;41.00
23618;DHT22;18207;32.078;34.818;2023-05-10T11:54:36;30.50;41.00
23618;DHT22;18207;32.078;34.818;2023-05-10T11:57:06;30.50;40.90
23618;DHT22;18207;32.078;34.818;2023-05-10T11:59:38;30.50;40.90
23618;DHT22;18207;32.078;34.818;2023-05-10T12:02:10;30.50;40.90
23618;DHT22;18207;32.078;34.818;2023-05-10T12:04:41;30.50;41.00
23618;DHT22;18207;32.078;34.818;2023-05-10T12:07:11;30.50;41.10
23618;DHT22;18207;32.078;34.818;2023-05-10T12:09:43;30.50;41.10
23618;DHT22;18207;32.078;34.818;2023-05-10T12:12:16;30.50;41.00
23618;DHT22;18207;32.078;34.818;2023-05-10T12:14:51;30.50;41.00
23618;DHT22;18207;32.078;34.818;2023-05-10T12:17:21;30.60;41.00
23618;DHT22;18207;32.078;34.818;2023-05-10T12:19:59;30.50;40.90
23618;DHT22;18207;32.078;34.818;2023-05-10T12:22:46;30.50;40.90
23618;DHT22;18207;32.078;34.818;2023-05-10T12:25:17;30.50;40.90
23618;DHT22;18207;32.078;34.818;2023-05-10T12:27:49;30.50;41.00
23618;DHT22;18207;32.078;34.818;2023-05-10T12:30:39;30.50;41.00
23618;DHT22;18207;32.078;34.818;2023-05-10T12:33:11;30.50;40.90
23618;DHT22;18207;32.078;34.818;2023-05-10T12:35:45;30.50;40.90
23618;DHT22;18207;32.078;34.818;2023-05-10T12:38:27;30.50;40.90
23618;DHT22;18207;32.078;34.818;2023-05-10T12:41:00;30.50;40.80
23618;DHT22;18207;32.078;34.818;2023-05-10T12:43:33;30.50;40.80
23618;DHT22;18207;32.078;34.818;2023-05-10T12:46:10;30.50;40.80
23618;DHT22;18207;32.078;34.818;2023-05-10T12:48:42;30.50;40.80
23618;DHT22;18207;32.078;34.818;2023-05-10T12:51:13;30.50;40.80
23618;DHT22;18207;32.078;34.818;2023-05-10T12:53:46;30.50;40.80
23618;DHT22;18207;32.078;34.818;2023-05-10T12:56:17;30.50;40.80
23618;DHT22;18207;32.078;34.818;2023-05-10T12:58:47;30.50;40.80
23618;DHT22;18207;32.078;34.818;2023-05-10T13:01:19;30.40;40.70
23618;DHT22;18207;32.078;34.818;2023-05-10T13:03:49;30.50;40.80
23618;DHT22;18207;32.078;34.818;2023-05-10T13:06:19;30.40;40.80
23618;DHT22;18207;32.078;34.818;2023-05-10T13:08:49;30.50;40.80
23618;DHT22;18207;32.078;34.818;2023-05-10T13:11:19;30.40;40.70
23618;DHT22;18207;32.078;34.818;2023-05-10T13:13:50;30.40;40.80
23618;DHT22;18207;32.078;34.818;2023-05-10T13:16:23;30.40;40.70
23618;DHT22;18207;32.078;34.818;2023-05-10T13:18:53;30.40;40.80
23618;DHT22;18207;32.078;34.818;2023-05-10T13:21:23;30.30;40.60
23618;DHT22;18207;32.078;34.818;2023-05-10T13:23:54;30.30;40.70
23618;DHT22;18207;32.078;34.818;2023-05-10T13:26:24;30.30;40.60
23618;DHT22;18207;32.078;34.818;2023-05-10T13:28:54;30.30;40.60
23618;DHT22;18207;32.078;34.818;2023-05-10T13:31:26;30.30;40.60
23618;DHT22;18207;32.078;34.818;2023-05-10T13:33:57;30.20;40.60
23618;DHT22;18207;32.078;34.818;2023-05-10T13:36:27;30.20;40.60
23618;DHT22;18207;32.078;34.818;2023-05-10T13:38:57;30.20;40.70
23618;DHT22;18207;32.078;34.818;2023-05-10T13:41:28;30.20;40.60
23618;DHT22;18207;32.078;34.818;2023-05-10T13:43:59;30.20;40.60
23618;DHT22;18207;32.078;34.818;2023-05-10T13:46:31;30.20;40.70
23618;DHT22;18207;32.078;34.818;2023-05-10T13:49:01;30.20;40.60
23618;DHT22;18207;32.078;34.818;2023-05-10T13:51:32;30.10;40.60
23618;DHT22;18207;32.078;34.818;2023-05-10T13:54:03;30.10;40.60
23618;DHT22;18207;32.078;34.818;2023-05-10T13:56:33;30.10;40.70
23618;DHT22;18207;32.078;34.818;2023-05-10T13:59:03;30.10;40.70
23618;DHT22;18207;32.078;34.818;2023-05-10T14:01:37;30.10;40.70
23618;DHT22;18207;32.078;34.818;2023-05-10T14:04:07;30.10;40.70
23618;DHT22;18207;32.078;34.818;2023-05-10T14:06:38;30.10;40.80
23618;DHT22;18207;32.078;34.818;2023-05-10T14:09:08;30.00;40.80
23618;DHT22;18207;32.078;34.818;2023-05-10T14:11:39;30.00;40.90
23618;DHT22;18207;32.078;34.818;2023-05-10T14:14:11;30.00;40.90
23618;DHT22;18207;32.078;34.818;2023-05-10T14:16:44;30.00;40.90
23618;DHT22;18207;32.078;34.818;2023-05-10T14:19:15;30.00;40.90
23618;DHT22;18207;32.078;34.818;2023-05-10T14:21:45;29.90;40.90
23618;DHT22;18207;32.078;34.818;2023-05-10T14:24:14;29.90;41.00
23618;DHT22;18207;32.078;34.818;2023-05-10T14:26:44;29.90;41.00
23618;DHT22;18207;32.078;34.818;2023-05-10T14:29:14;29.90;41.00
23618;DHT22;18207;32.078;34.818;2023-05-10T14:31:46;29.90;41.10
23618;DHT22;18207;32.078;34.818;2023-05-10T14:34:16;29.80;41.00
23618;DHT22;18207;32.078;34.818;2023-05-10T14:36:46;29.80;41.00
23618;DHT22;18207;32.078;34.818;2023-05-10T14:39:17;29.80;41.00
23618;DHT22;18207;32.078;34.818;2023-05-10T14:41:47;29.70;41.00
23618;DHT22;18207;32.078;34.818;2023-05-10T14:44:18;29.70;41.00
23618;DHT22;18207;32.078;34.818;2023-05-10T14:46:50;29.70;41.00
23618;DHT22;18207;32.078;34.818;2023-05-10T14:49:21;29.70;41.00
23618;DHT22;18207;32.078;34.818;2023-05-10T14:51:53;29.60;41.10
23618;DHT22;18207;32.078;34.818;2023-05-10T14:54:23;29.60;41.00
23618;DHT22;18207;32.078;34.818;2023-05-10T14:56:54;29.60;41.10
23618;DHT22;18207;32.078;34.818;2023-05-10T14:59:25;29.60;41.10
23618;DHT22;18207;32.078;34.818;2023-05-10T15:01:58;29.60;41.20
23618;DHT22;18207;32.078;34.818;2023-05-10T15:04:29;29.60;41.30
23618;DHT22;18207;32.078;34.818;2023-05-10T15:07:00;29.50;41.30
23618;DHT22;18207;32.078;34.818;2023-05-10T15:09:30;29.60;41.40
23618;DHT22;18207;32.078;34.818;2023-05-10T15:12:01;29.50;41.40
23618;DHT22;18207;32.078;34.818;2023-05-10T15:14:30;29.50;41.50
23618;DHT22;18207;32.078;34.818;2023-05-10T15:17:03;29.50;42.20
23618;DHT22;18207;32.078;34.818;2023-05-10T15:19:35;29.50;41.60
23618;DHT22;18207;32.078;34.818;2023-05-10T15:22:05;29.50;41.60
23618;DHT22;18207;32.078;34.818;2023-05-10T15:24:36;29.40;41.60
23618;DHT22;18207;32.078;34.818;2023-05-10T15:27:06;29.40;41.70
23618;DHT22;18207;32.078;34.818;2023-05-10T15:29:36;29.40;41.80
23618;DHT22;18207;32.078;34.818;2023-05-10T15:32:08;29.40;41.80
23618;DHT22;18207;32.078;34.818;2023-05-10T15:34:39;29.30;41.80
23618;DHT22;18207;32.078;34.818;2023-05-10T15:37:08;29.40;41.90
23618;DHT22;18207;32.078;34.818;2023-05-10T15:39:39;29.30;42.00
23618;DHT22;18207;32.078;34.818;2023-05-10T15:42:09;29.30;42.10
23618;DHT22;18207;32.078;34.818;2023-05-10T15:44:39;29.30;42.20
23618;DHT22;18207;32.078;34.818;2023-05-10T15:47:13;29.30;42.20
23618;DHT22;18207;32.078;34.818;2023-05-10T15:49:43;29.30;42.30